sensor_id;sensor_type;location;lat;lon;timestamp;P1;durP1;ratioP1;P2;durP2;ratioP2
74170;SDS011;62526;50.948;6.590;2023-02-20T00:01:50;12.20;;;5.80;;
74170;SDS011;62526;50.948;6.590;2023-02-20T00:04:15;15.40;;;7.43;;
74170;SDS011;62526;50.948;6.590;2023-02-20T00:06:42;13.63;;;6.57;;
74170;SDS011;62526;50.948;6.590;2023-02-20T00:09:08;11.10;;;6.87;;
74170;SDS011;62526;50.948;6.590;2023-02-20T00:11:35;11.77;;;7.63;;
74170;SDS011;62526;50.948;6.590;2023-02-20T00:14:02;16.83;;;7.63;;
74170;SDS011;62526;50.948;6.590;2023-02-20T00:16:28;11.83;;;6.63;;
74170;SDS011;62526;50.948;6.590;2023-02-20T00:18:56;17.80;;;8.07;;
74170;SDS011;62526;50.948;6.590;2023-02-20T00:21:22;10.87;;;7.40;;
74170;SDS011;62526;50.948;6.590;2023-02-20T00:23:49;10.73;;;7.07;;
74170;SDS011;62526;50.948;6.590;2023-02-20T00:26:16;12.10;;;7.47;;
74170;SDS011;62526;50.948;6.590;2023-02-20T00:28:42;15.07;;;7.83;;
74170;SDS011;62526;50.948;6.590;2023-02-20T00:31:11;14.93;;;8.27;;
74170;SDS011;62526;50.948;6.590;2023-02-20T00:33:36;11.97;;;8.17;;
74170;SDS011;62526;50.948;6.590;2023-02-20T00:36:03;10.43;;;6.07;;
74170;SDS011;62526;50.948;6.590;2023-02-20T00:38:30;12.43;;;7.23;;
74170;SDS011;62526;50.948;6.590;2023-02-20T00:40:56;15.43;;;8.40;;
74170;SDS011;62526;50.948;6.590;2023-02-20T00:43:23;12.67;;;7.67;;
74170;SDS011;62526;50.948;6.590;2023-02-20T00:45:49;12.07;;;7.50;;
74170;SDS011;62526;50.948;6.590;2023-02-20T00:48:16;13.33;;;8.17;;
74170;SDS011;62526;50.948;6.590;2023-02-20T00:50:44;12.13;;;8.30;;
74170;SDS011;62526;50.948;6.590;2023-02-20T00:53:11;15.50;;;7.40;;
74170;SDS011;62526;50.948;6.590;2023-02-20T00:55:37;16.27;;;8.27;;
74170;SDS011;62526;50.948;6.590;2023-02-20T00:58:04;15.47;;;8.17;;
74170;SDS011;62526;50.948;6.590;2023-02-20T01:00:31;11.40;;;7.30;;
74170;SDS011;62526;50.948;6.590;2023-02-20T01:02:58;14.80;;;7.53;;
74170;SDS011;62526;50.948;6.590;2023-02-20T01:05:25;15.10;;;8.17;;
74170;SDS011;62526;50.948;6.590;2023-02-20T01:07:51;11.97;;;7.90;;
74170;SDS011;62526;50.948;6.590;2023-02-20T01:10:18;13.63;;;7.63;;
74170;SDS011;62526;50.948;6.590;2023-02-20T01:12:45;15.70;;;8.33;;
74170;SDS011;62526;50.948;6.590;2023-02-20T01:15:13;18.77;;;7.83;;
74170;SDS011;62526;50.948;6.590;2023-02-20T01:17:38;12.87;;;8.40;;
74170;SDS011;62526;50.948;6.590;2023-02-20T01:20:05;12.43;;;8.17;;
74170;SDS011;62526;50.948;6.590;2023-02-20T01:22:32;12.90;;;7.43;;
74170;SDS011;62526;50.948;6.590;2023-02-20T01:24:59;11.93;;;7.60;;
74170;SDS011;62526;50.948;6.590;2023-02-20T01:27:25;10.13;;;6.37;;
74170;SDS011;62526;50.948;6.590;2023-02-20T01:29:52;14.87;;;8.63;;
74170;SDS011;62526;50.948;6.590;2023-02-20T01:32:19;17.83;;;8.40;;
74170;SDS011;62526;50.948;6.590;2023-02-20T01:34:46;15.90;;;8.80;;
74170;SDS011;62526;50.948;6.590;2023-02-20T01:37:13;15.97;;;9.53;;
74170;SDS011;62526;50.948;6.590;2023-02-20T01:39:39;13.23;;;7.33;;
74170;SDS011;62526;50.948;6.590;2023-02-20T01:42:06;16.40;;;9.23;;
74170;SDS011;62526;50.948;6.590;2023-02-20T01:44:33;10.60;;;6.60;;
74170;SDS011;62526;50.948;6.590;2023-02-20T01:47:00;13.77;;;6.80;;
74170;SDS011;62526;50.948;6.590;2023-02-20T01:49:30;15.70;;;6.33;;
74170;SDS011;62526;50.948;6.590;2023-02-20T01:52:02;18.70;;;7.97;;
74170;SDS011;62526;50.948;6.590;2023-02-20T01:54:30;10.97;;;6.67;;
74170;SDS011;62526;50.948;6.590;2023-02-20T01:56:58;11.20;;;6.50;;
74170;SDS011;62526;50.948;6.590;2023-02-20T01:59:23;17.87;;;9.10;;
74170;SDS011;62526;50.948;6.590;2023-02-20T02:01:49;12.80;;;7.50;;
74170;SDS011;62526;50.948;6.590;2023-02-20T02:04:16;14.43;;;9.07;;
74170;SDS011;62526;50.948;6.590;2023-02-20T02:06:44;19.13;;;10.20;;
74170;SDS011;62526;50.948;6.590;2023-02-20T02:09:16;17.97;;;8.87;;
74170;SDS011;62526;50.948;6.590;2023-02-20T02:11:47;16.17;;;8.93;;
74170;SDS011;62526;50.948;6.590;2023-02-20T02:14:13;17.93;;;9.30;;
74170;SDS011;62526;50.948;6.590;2023-02-20T02:16:49;23.73;;;8.13;;
74170;SDS011;62526;50.948;6.590;2023-02-20T02:19:35;17.30;;;9.33;;
74170;SDS011;62526;50.948;6.590;2023-02-20T02:22:06;12.43;;;8.30;;
74170;SDS011;62526;50.948;6.590;2023-02-20T02:24:34;15.00;;;7.63;;
74170;SDS011;62526;50.948;6.590;2023-02-20T02:29:52;11.77;;;6.00;;
74170;SDS011;62526;50.948;6.590;2023-02-20T02:34:59;13.90;;;7.63;;
74170;SDS011;62526;50.948;6.590;2023-02-20T02:40:25;14.93;;;7.30;;
74170;SDS011;62526;50.948;6.590;2023-02-20T02:45:50;17.90;;;7.57;;
74170;SDS011;62526;50.948;6.590;2023-02-20T02:48:23;20.23;;;7.60;;
74170;SDS011;62526;50.948;6.590;2023-02-20T02:51:07;14.53;;;7.03;;
74170;SDS011;62526;50.948;6.590;2023-02-20T02:53:31;12.90;;;4.90;;
74170;SDS011;62526;50.948;6.590;2023-02-20T02:55:58;11.87;;;6.53;;
74170;SDS011;62526;50.948;6.590;2023-02-20T02:58:25;14.17;;;6.07;;
74170;SDS011;62526;50.948;6.590;2023-02-20T03:00:54;16.27;;;7.47;;
74170;SDS011;62526;50.948;6.590;2023-02-20T03:03:19;14.67;;;7.07;;
74170;SDS011;62526;50.948;6.590;2023-02-20T03:05:49;13.90;;;5.37;;
74170;SDS011;62526;50.948;6.590;2023-02-20T03:08:43;10.33;;;5.07;;
74170;SDS011;62526;50.948;6.590;2023-02-20T03:11:13;10.53;;;4.87;;
74170;SDS011;62526;50.948;6.590;2023-02-20T03:13:41;9.33;;;5.03;;
74170;SDS011;62526;50.948;6.590;2023-02-20T03:16:11;9.07;;;5.20;;
74170;SDS011;62526;50.948;6.590;2023-02-20T03:18:38;14.53;;;6.07;;
74170;SDS011;62526;50.948;6.590;2023-02-20T03:21:09;10.00;;;4.23;;
74170;SDS011;62526;50.948;6.590;2023-02-20T03:23:35;11.07;;;5.23;;
74170;SDS011;62526;50.948;6.590;2023-02-20T03:26:03;11.63;;;5.37;;
74170;SDS011;62526;50.948;6.590;2023-02-20T03:28:45;12.13;;;4.83;;
74170;SDS011;62526;50.948;6.590;2023-02-20T03:31:13;10.90;;;4.53;;
74170;SDS011;62526;50.948;6.590;2023-02-20T03:33:49;13.57;;;5.53;;
74170;SDS011;62526;50.948;6.590;2023-02-20T03:36:25;8.73;;;4.60;;
74170;SDS011;62526;50.948;6.590;2023-02-20T03:38:58;16.43;;;4.27;;
74170;SDS011;62526;50.948;6.590;2023-02-20T03:41:31;9.53;;;4.30;;
74170;SDS011;62526;50.948;6.590;2023-02-20T03:44:03;10.97;;;4.73;;
74170;SDS011;62526;50.948;6.590;2023-02-20T03:46:30;10.80;;;5.80;;
74170;SDS011;62526;50.948;6.590;2023-02-20T03:48:59;8.97;;;4.83;;
74170;SDS011;62526;50.948;6.590;2023-02-20T03:51:24;17.53;;;6.53;;
74170;SDS011;62526;50.948;6.590;2023-02-20T03:53:56;7.70;;;4.53;;
74170;SDS011;62526;50.948;6.590;2023-02-20T03:56:24;9.70;;;4.80;;
74170;SDS011;62526;50.948;6.590;2023-02-20T03:58:54;11.57;;;4.50;;
74170;SDS011;62526;50.948;6.590;2023-02-20T04:01:21;9.83;;;4.37;;
74170;SDS011;62526;50.948;6.590;2023-02-20T04:03:47;10.17;;;4.53;;
74170;SDS011;62526;50.948;6.590;2023-02-20T04:06:14;8.23;;;3.90;;
74170;SDS011;62526;50.948;6.590;2023-02-20T04:08:51;10.43;;;4.33;;
74170;SDS011;62526;50.948;6.590;2023-02-20T04:11:37;9.43;;;3.40;;
74170;SDS011;62526;50.948;6.590;2023-02-20T04:14:02;14.70;;;4.03;;
74170;SDS011;62526;50.948;6.590;2023-02-20T04:16:29;9.33;;;4.23;;
74170;SDS011;62526;50.948;6.590;2023-02-20T04:18:56;8.63;;;3.67;;
74170;SDS011;62526;50.948;6.590;2023-02-20T04:21:29;10.70;;;4.80;;
74170;SDS011;62526;50.948;6.590;2023-02-20T04:24:01;12.33;;;3.93;;
74170;SDS011;62526;50.948;6.590;2023-02-20T04:26:22;13.00;;;4.20;;
74170;SDS011;62526;50.948;6.590;2023-02-20T04:28:49;8.83;;;2.60;;
74170;SDS011;62526;50.948;6.590;2023-02-20T04:31:16;10.07;;;3.83;;
74170;SDS011;62526;50.948;6.590;2023-02-20T04:33:44;5.80;;;3.40;;
74170;SDS011;62526;50.948;6.590;2023-02-20T04:36:10;9.60;;;2.90;;
74170;SDS011;62526;50.948;6.590;2023-02-20T04:38:38;9.50;;;3.43;;
74170;SDS011;62526;50.948;6.590;2023-02-20T04:41:05;4.50;;;2.70;;
74170;SDS011;62526;50.948;6.590;2023-02-20T04:43:31;7.97;;;2.50;;
74170;SDS011;62526;50.948;6.590;2023-02-20T04:45:59;10.17;;;3.53;;
74170;SDS011;62526;50.948;6.590;2023-02-20T04:48:24;6.37;;;2.73;;
74170;SDS011;62526;50.948;6.590;2023-02-20T04:50:51;4.93;;;2.87;;
74170;SDS011;62526;50.948;6.590;2023-02-20T04:53:18;5.70;;;3.13;;
74170;SDS011;62526;50.948;6.590;2023-02-20T04:55:46;7.57;;;2.80;;
74170;SDS011;62526;50.948;6.590;2023-02-20T04:58:14;5.60;;;2.30;;
74170;SDS011;62526;50.948;6.590;2023-02-20T05:00:41;7.83;;;2.70;;
74170;SDS011;62526;50.948;6.590;2023-02-20T05:03:08;9.23;;;2.73;;
74170;SDS011;62526;50.948;6.590;2023-02-20T05:05:34;8.77;;;2.90;;
74170;SDS011;62526;50.948;6.590;2023-02-20T05:08:02;7.10;;;2.13;;
74170;SDS011;62526;50.948;6.590;2023-02-20T05:10:29;4.23;;;2.50;;
74170;SDS011;62526;50.948;6.590;2023-02-20T05:12:55;6.07;;;2.17;;
74170;SDS011;62526;50.948;6.590;2023-02-20T05:15:22;7.00;;;3.20;;
74170;SDS011;62526;50.948;6.590;2023-02-20T05:17:48;8.00;;;2.30;;
74170;SDS011;62526;50.948;6.590;2023-02-20T05:20:15;3.60;;;2.27;;
74170;SDS011;62526;50.948;6.590;2023-02-20T05:22:41;10.43;;;2.97;;
74170;SDS011;62526;50.948;6.590;2023-02-20T05:25:08;7.37;;;2.50;;
74170;SDS011;62526;50.948;6.590;2023-02-20T05:27:34;6.50;;;2.77;;
74170;SDS011;62526;50.948;6.590;2023-02-20T05:30:01;9.37;;;2.70;;
74170;SDS011;62526;50.948;6.590;2023-02-20T05:32:29;16.70;;;2.77;;
74170;SDS011;62526;50.948;6.590;2023-02-20T05:34:56;4.00;;;2.30;;
74170;SDS011;62526;50.948;6.590;2023-02-20T05:37:23;9.77;;;2.53;;
74170;SDS011;62526;50.948;6.590;2023-02-20T05:39:49;11.77;;;3.00;;
74170;SDS011;62526;50.948;6.590;2023-02-20T05:42:16;8.57;;;2.63;;
74170;SDS011;62526;50.948;6.590;2023-02-20T05:44:42;7.30;;;2.60;;
74170;SDS011;62526;50.948;6.590;2023-02-20T05:47:09;3.37;;;2.87;;
74170;SDS011;62526;50.948;6.590;2023-02-20T05:49:36;7.03;;;2.53;;
74170;SDS011;62526;50.948;6.590;2023-02-20T05:52:03;11.10;;;3.00;;
74170;SDS011;62526;50.948;6.590;2023-02-20T05:54:33;9.83;;;2.60;;
74170;SDS011;62526;50.948;6.590;2023-02-20T05:56:59;9.67;;;2.97;;
74170;SDS011;62526;50.948;6.590;2023-02-20T05:59:26;6.77;;;1.97;;
74170;SDS011;62526;50.948;6.590;2023-02-20T06:01:55;6.07;;;2.13;;
74170;SDS011;62526;50.948;6.590;2023-02-20T06:04:21;9.07;;;2.20;;
74170;SDS011;62526;50.948;6.590;2023-02-20T06:06:47;4.37;;;2.40;;
74170;SDS011;62526;50.948;6.590;2023-02-20T06:09:16;8.80;;;2.67;;
74170;SDS011;62526;50.948;6.590;2023-02-20T06:11:50;6.43;;;2.30;;
74170;SDS011;62526;50.948;6.590;2023-02-20T06:14:18;7.67;;;2.87;;
74170;SDS011;62526;50.948;6.590;2023-02-20T06:16:44;6.30;;;2.03;;
74170;SDS011;62526;50.948;6.590;2023-02-20T06:19:11;9.83;;;2.97;;
74170;SDS011;62526;50.948;6.590;2023-02-20T06:21:43;6.57;;;2.33;;
74170;SDS011;62526;50.948;6.590;2023-02-20T06:24:05;15.17;;;3.30;;
74170;SDS011;62526;50.948;6.590;2023-02-20T06:26:37;3.97;;;2.30;;
74170;SDS011;62526;50.948;6.590;2023-02-20T06:28:59;9.73;;;2.77;;
74170;SDS011;62526;50.948;6.590;2023-02-20T06:31:26;9.13;;;3.10;;
74170;SDS011;62526;50.948;6.590;2023-02-20T06:33:53;6.70;;;2.53;;
74170;SDS011;62526;50.948;6.590;2023-02-20T06:36:22;14.70;;;3.13;;
74170;SDS011;62526;50.948;6.590;2023-02-20T06:38:49;9.13;;;2.83;;
74170;SDS011;62526;50.948;6.590;2023-02-20T06:41:15;6.10;;;2.47;;
74170;SDS011;62526;50.948;6.590;2023-02-20T06:43:42;7.17;;;2.83;;
74170;SDS011;62526;50.948;6.590;2023-02-20T06:46:09;6.67;;;2.90;;
74170;SDS011;62526;50.948;6.590;2023-02-20T06:48:42;6.70;;;2.93;;
74170;SDS011;62526;50.948;6.590;2023-02-20T06:51:18;9.30;;;2.87;;
74170;SDS011;62526;50.948;6.590;2023-02-20T06:53:44;6.33;;;3.10;;
74170;SDS011;62526;50.948;6.590;2023-02-20T06:56:13;8.93;;;3.87;;
74170;SDS011;62526;50.948;6.590;2023-02-20T06:58:37;8.33;;;2.80;;
74170;SDS011;62526;50.948;6.590;2023-02-20T07:01:04;6.40;;;3.17;;
74170;SDS011;62526;50.948;6.590;2023-02-20T07:03:30;12.43;;;3.60;;
74170;SDS011;62526;50.948;6.590;2023-02-20T07:05:57;7.57;;;3.40;;
74170;SDS011;62526;50.948;6.590;2023-02-20T07:08:24;6.87;;;3.03;;
74170;SDS011;62526;50.948;6.590;2023-02-20T07:10:50;8.70;;;3.27;;
74170;SDS011;62526;50.948;6.590;2023-02-20T07:13:17;4.90;;;3.03;;
74170;SDS011;62526;50.948;6.590;2023-02-20T07:15:44;11.50;;;3.67;;
74170;SDS011;62526;50.948;6.590;2023-02-20T07:18:11;5.43;;;3.53;;
74170;SDS011;62526;50.948;6.590;2023-02-20T07:20:37;7.80;;;3.77;;
74170;SDS011;62526;50.948;6.590;2023-02-20T07:23:04;6.63;;;3.27;;
74170;SDS011;62526;50.948;6.590;2023-02-20T07:25:31;9.70;;;2.70;;
74170;SDS011;62526;50.948;6.590;2023-02-20T07:27:58;11.37;;;3.97;;
74170;SDS011;62526;50.948;6.590;2023-02-20T07:30:24;3.20;;;2.43;;
74170;SDS011;62526;50.948;6.590;2023-02-20T07:32:51;11.37;;;4.13;;
74170;SDS011;62526;50.948;6.590;2023-02-20T07:35:18;6.77;;;4.17;;
74170;SDS011;62526;50.948;6.590;2023-02-20T07:37:44;7.37;;;4.10;;
74170;SDS011;62526;50.948;6.590;2023-02-20T07:40:11;6.27;;;3.23;;
74170;SDS011;62526;50.948;6.590;2023-02-20T07:42:37;6.73;;;4.07;;
74170;SDS011;62526;50.948;6.590;2023-02-20T07:45:04;6.50;;;3.73;;
74170;SDS011;62526;50.948;6.590;2023-02-20T07:47:34;8.03;;;4.43;;
74170;SDS011;62526;50.948;6.590;2023-02-20T07:52:44;5.03;;;3.57;;
74170;SDS011;62526;50.948;6.590;2023-02-20T07:55:12;8.07;;;4.87;;
74170;SDS011;62526;50.948;6.590;2023-02-20T07:57:38;5.93;;;3.80;;
74170;SDS011;62526;50.948;6.590;2023-02-20T08:00:05;8.93;;;3.50;;
74170;SDS011;62526;50.948;6.590;2023-02-20T08:02:33;6.70;;;4.17;;
74170;SDS011;62526;50.948;6.590;2023-02-20T08:04:59;8.50;;;5.00;;
74170;SDS011;62526;50.948;6.590;2023-02-20T08:07:26;12.67;;;5.43;;
74170;SDS011;62526;50.948;6.590;2023-02-20T08:09:52;11.47;;;6.37;;
74170;SDS011;62526;50.948;6.590;2023-02-20T08:12:19;12.80;;;6.23;;
74170;SDS011;62526;50.948;6.590;2023-02-20T08:14:48;11.10;;;5.77;;
74170;SDS011;62526;50.948;6.590;2023-02-20T08:17:12;9.17;;;4.77;;
74170;SDS011;62526;50.948;6.590;2023-02-20T08:19:39;13.17;;;4.80;;
74170;SDS011;62526;50.948;6.590;2023-02-20T08:22:05;11.33;;;5.93;;
74170;SDS011;62526;50.948;6.590;2023-02-20T08:24:32;14.47;;;5.93;;
74170;SDS011;62526;50.948;6.590;2023-02-20T08:26:59;4.70;;;3.73;;
74170;SDS011;62526;50.948;6.590;2023-02-20T08:29:25;12.70;;;5.03;;
74170;SDS011;62526;50.948;6.590;2023-02-20T08:31:52;11.57;;;5.77;;
74170;SDS011;62526;50.948;6.590;2023-02-20T08:34:18;9.37;;;5.73;;
74170;SDS011;62526;50.948;6.590;2023-02-20T08:36:45;11.23;;;5.60;;
74170;SDS011;62526;50.948;6.590;2023-02-20T08:39:12;10.73;;;6.43;;
74170;SDS011;62526;50.948;6.590;2023-02-20T08:41:41;17.77;;;7.57;;
74170;SDS011;62526;50.948;6.590;2023-02-20T08:44:06;13.40;;;6.43;;
74170;SDS011;62526;50.948;6.590;2023-02-20T08:46:33;10.40;;;6.23;;
74170;SDS011;62526;50.948;6.590;2023-02-20T08:49:00;9.53;;;5.60;;
74170;SDS011;62526;50.948;6.590;2023-02-20T08:51:26;11.03;;;6.90;;
74170;SDS011;62526;50.948;6.590;2023-02-20T08:53:53;12.30;;;6.60;;
74170;SDS011;62526;50.948;6.590;2023-02-20T08:56:20;9.40;;;6.80;;
74170;SDS011;62526;50.948;6.590;2023-02-20T08:58:46;14.77;;;8.73;;
74170;SDS011;62526;50.948;6.590;2023-02-20T09:01:13;9.53;;;5.07;;
74170;SDS011;62526;50.948;6.590;2023-02-20T09:03:39;9.93;;;6.53;;
74170;SDS011;62526;50.948;6.590;2023-02-20T09:06:06;13.63;;;7.70;;
74170;SDS011;62526;50.948;6.590;2023-02-20T09:08:33;14.70;;;6.60;;
74170;SDS011;62526;50.948;6.590;2023-02-20T09:10:59;11.40;;;7.53;;
74170;SDS011;62526;50.948;6.590;2023-02-20T09:13:26;8.23;;;6.57;;
74170;SDS011;62526;50.948;6.590;2023-02-20T09:15:52;10.97;;;6.90;;
74170;SDS011;62526;50.948;6.590;2023-02-20T09:18:19;10.27;;;6.77;;
74170;SDS011;62526;50.948;6.590;2023-02-20T09:20:46;18.03;;;7.50;;
74170;SDS011;62526;50.948;6.590;2023-02-20T09:23:12;11.30;;;5.87;;
74170;SDS011;62526;50.948;6.590;2023-02-20T09:25:39;10.83;;;6.13;;
74170;SDS011;62526;50.948;6.590;2023-02-20T09:28:06;12.23;;;7.13;;
74170;SDS011;62526;50.948;6.590;2023-02-20T09:30:32;14.90;;;7.43;;
74170;SDS011;62526;50.948;6.590;2023-02-20T09:32:59;13.77;;;6.03;;
74170;SDS011;62526;50.948;6.590;2023-02-20T09:35:26;12.57;;;6.30;;
74170;SDS011;62526;50.948;6.590;2023-02-20T09:37:52;18.10;;;7.87;;
74170;SDS011;62526;50.948;6.590;2023-02-20T09:40:23;10.23;;;6.10;;
74170;SDS011;62526;50.948;6.590;2023-02-20T09:42:52;9.97;;;6.43;;
74170;SDS011;62526;50.948;6.590;2023-02-20T09:45:19;11.97;;;7.77;;
74170;SDS011;62526;50.948;6.590;2023-02-20T09:48:04;10.40;;;6.57;;
74170;SDS011;62526;50.948;6.590;2023-02-20T09:50:41;10.27;;;6.07;;
74170;SDS011;62526;50.948;6.590;2023-02-20T09:53:10;11.67;;;6.70;;
74170;SDS011;62526;50.948;6.590;2023-02-20T09:55:37;17.70;;;7.17;;
74170;SDS011;62526;50.948;6.590;2023-02-20T09:58:04;9.63;;;5.77;;
74170;SDS011;62526;50.948;6.590;2023-02-20T10:00:33;14.80;;;7.17;;
74170;SDS011;62526;50.948;6.590;2023-02-20T10:03:12;12.53;;;8.20;;
74170;SDS011;62526;50.948;6.590;2023-02-20T10:05:36;14.97;;;6.80;;
74170;SDS011;62526;50.948;6.590;2023-02-20T10:08:03;9.30;;;5.17;;
74170;SDS011;62526;50.948;6.590;2023-02-20T10:10:30;14.97;;;7.17;;
74170;SDS011;62526;50.948;6.590;2023-02-20T10:13:01;14.67;;;6.60;;
74170;SDS011;62526;50.948;6.590;2023-02-20T10:15:33;13.97;;;7.70;;
74170;SDS011;62526;50.948;6.590;2023-02-20T10:18:22;15.43;;;7.40;;
74170;SDS011;62526;50.948;6.590;2023-02-20T10:21:02;12.50;;;7.90;;
74170;SDS011;62526;50.948;6.590;2023-02-20T10:26:18;11.97;;;6.80;;
74170;SDS011;62526;50.948;6.590;2023-02-20T10:28:46;10.93;;;6.00;;
74170;SDS011;62526;50.948;6.590;2023-02-20T10:31:17;12.40;;;6.10;;
74170;SDS011;62526;50.948;6.590;2023-02-20T10:33:45;13.60;;;7.77;;
74170;SDS011;62526;50.948;6.590;2023-02-20T10:36:15;14.53;;;7.80;;
74170;SDS011;62526;50.948;6.590;2023-02-20T10:38:48;10.23;;;6.27;;
74170;SDS011;62526;50.948;6.590;2023-02-20T10:41:24;16.80;;;7.60;;
74170;SDS011;62526;50.948;6.590;2023-02-20T10:43:53;14.32;;;7.95;;
74170;SDS011;62526;50.948;6.590;2023-02-20T10:46:25;17.30;;;8.40;;
74170;SDS011;62526;50.948;6.590;2023-02-20T10:48:52;18.50;;;9.73;;
74170;SDS011;62526;50.948;6.590;2023-02-20T10:51:23;18.77;;;8.97;;
74170;SDS011;62526;50.948;6.590;2023-02-20T10:53:54;8.30;;;5.67;;
74170;SDS011;62526;50.948;6.590;2023-02-20T10:56:19;10.27;;;5.73;;
74170;SDS011;62526;50.948;6.590;2023-02-20T10:59:05;11.73;;;7.13;;
74170;SDS011;62526;50.948;6.590;2023-02-20T11:01:35;17.70;;;7.32;;
74170;SDS011;62526;50.948;6.590;2023-02-20T11:04:02;17.17;;;7.57;;
74170;SDS011;62526;50.948;6.590;2023-02-20T11:06:31;12.33;;;8.53;;
74170;SDS011;62526;50.948;6.590;2023-02-20T11:08:58;14.93;;;7.73;;
74170;SDS011;62526;50.948;6.590;2023-02-20T11:11:29;13.17;;;8.40;;
74170;SDS011;62526;50.948;6.590;2023-02-20T11:13:54;16.43;;;10.20;;
74170;SDS011;62526;50.948;6.590;2023-02-20T11:16:22;16.03;;;8.90;;
74170;SDS011;62526;50.948;6.590;2023-02-20T11:18:51;12.57;;;7.23;;
74170;SDS011;62526;50.948;6.590;2023-02-20T11:21:48;13.07;;;8.63;;
74170;SDS011;62526;50.948;6.590;2023-02-20T11:23:58;16.07;;;8.73;;
74170;SDS011;62526;50.948;6.590;2023-02-20T11:26:28;17.37;;;9.60;;
74170;SDS011;62526;50.948;6.590;2023-02-20T11:28:57;17.00;;;8.10;;
74170;SDS011;62526;50.948;6.590;2023-02-20T11:31:23;18.73;;;11.00;;
74170;SDS011;62526;50.948;6.590;2023-02-20T11:33:50;16.43;;;10.20;;
74170;SDS011;62526;50.948;6.590;2023-02-20T11:36:17;13.43;;;7.77;;
74170;SDS011;62526;50.948;6.590;2023-02-20T11:38:43;13.17;;;7.03;;
74170;SDS011;62526;50.948;6.590;2023-02-20T11:41:12;15.50;;;9.93;;
74170;SDS011;62526;50.948;6.590;2023-02-20T11:43:39;16.47;;;9.03;;
74170;SDS011;62526;50.948;6.590;2023-02-20T11:46:15;16.43;;;8.93;;
74170;SDS011;62526;50.948;6.590;2023-02-20T11:51:40;17.70;;;9.57;;
74170;SDS011;62526;50.948;6.590;2023-02-20T11:54:12;18.70;;;8.98;;
74170;SDS011;62526;50.948;6.590;2023-02-20T11:56:35;13.50;;;8.43;;
74170;SDS011;62526;50.948;6.590;2023-02-20T12:01:39;12.48;;;8.57;;
74170;SDS011;62526;50.948;6.590;2023-02-20T12:04:16;17.23;;;9.07;;
74170;SDS011;62526;50.948;6.590;2023-02-20T12:06:44;18.45;;;10.25;;
74170;SDS011;62526;50.948;6.590;2023-02-20T12:09:12;14.70;;;9.32;;
74170;SDS011;62526;50.948;6.590;2023-02-20T12:11:37;14.38;;;8.18;;
74170;SDS011;62526;50.948;6.590;2023-02-20T12:14:05;17.98;;;8.75;;
74170;SDS011;62526;50.948;6.590;2023-02-20T12:16:37;12.18;;;6.85;;
74170;SDS011;62526;50.948;6.590;2023-02-20T12:19:10;15.05;;;9.32;;
74170;SDS011;62526;50.948;6.590;2023-02-20T12:21:56;14.40;;;8.98;;
74170;SDS011;62526;50.948;6.590;2023-02-20T12:24:41;15.43;;;7.85;;
74170;SDS011;62526;50.948;6.590;2023-02-20T12:27:17;13.80;;;6.60;;
74170;SDS011;62526;50.948;6.590;2023-02-20T12:30:02;16.17;;;9.17;;
74170;SDS011;62526;50.948;6.590;2023-02-20T12:32:43;19.63;;;9.23;;
74170;SDS011;62526;50.948;6.590;2023-02-20T12:35:20;18.65;;;10.60;;
74170;SDS011;62526;50.948;6.590;2023-02-20T12:41:04;16.50;;;8.80;;
74170;SDS011;62526;50.948;6.590;2023-02-20T12:43:49;19.37;;;9.17;;
74170;SDS011;62526;50.948;6.590;2023-02-20T12:46:23;14.43;;;6.93;;
74170;SDS011;62526;50.948;6.590;2023-02-20T12:49:03;21.27;;;9.97;;
74170;SDS011;62526;50.948;6.590;2023-02-20T12:51:46;14.33;;;7.57;;
74170;SDS011;62526;50.948;6.590;2023-02-20T12:56:56;14.70;;;9.03;;
74170;SDS011;62526;50.948;6.590;2023-02-20T13:02:17;17.50;;;8.27;;
74170;SDS011;62526;50.948;6.590;2023-02-20T13:04:44;19.07;;;10.13;;
74170;SDS011;62526;50.948;6.590;2023-02-20T13:07:16;15.95;;;9.30;;
74170;SDS011;62526;50.948;6.590;2023-02-20T13:09:56;19.60;;;11.00;;
74170;SDS011;62526;50.948;6.590;2023-02-20T13:12:11;19.67;;;11.33;;
74170;SDS011;62526;50.948;6.590;2023-02-20T13:14:41;20.00;;;9.73;;
74170;SDS011;62526;50.948;6.590;2023-02-20T13:17:42;18.95;;;10.10;;
74170;SDS011;62526;50.948;6.590;2023-02-20T13:20:10;16.83;;;10.20;;
74170;SDS011;62526;50.948;6.590;2023-02-20T13:25:33;22.30;;;11.25;;
74170;SDS011;62526;50.948;6.590;2023-02-20T13:28:13;15.97;;;9.87;;
74170;SDS011;62526;50.948;6.590;2023-02-20T13:33:28;21.33;;;11.05;;
74170;SDS011;62526;50.948;6.590;2023-02-20T13:38:26;14.20;;;8.32;;
74170;SDS011;62526;50.948;6.590;2023-02-20T13:43:36;10.53;;;5.50;;
74170;SDS011;62526;50.948;6.590;2023-02-20T13:46:09;17.27;;;10.13;;
74170;SDS011;62526;50.948;6.590;2023-02-20T13:48:37;16.23;;;9.57;;
74170;SDS011;62526;50.948;6.590;2023-02-20T13:53:58;18.23;;;9.97;;
74170;SDS011;62526;50.948;6.590;2023-02-20T13:56:27;13.97;;;7.30;;
74170;SDS011;62526;50.948;6.590;2023-02-20T13:58:53;14.83;;;8.63;;
74170;SDS011;62526;50.948;6.590;2023-02-20T14:01:19;15.70;;;8.90;;
74170;SDS011;62526;50.948;6.590;2023-02-20T14:03:58;21.03;;;10.47;;
74170;SDS011;62526;50.948;6.590;2023-02-20T14:06:14;15.90;;;8.17;;
74170;SDS011;62526;50.948;6.590;2023-02-20T14:08:43;13.27;;;8.07;;
74170;SDS011;62526;50.948;6.590;2023-02-20T14:11:12;14.97;;;8.50;;
74170;SDS011;62526;50.948;6.590;2023-02-20T14:13:40;20.13;;;9.30;;
74170;SDS011;62526;50.948;6.590;2023-02-20T14:18:44;18.17;;;9.30;;
74170;SDS011;62526;50.948;6.590;2023-02-20T14:21:15;20.23;;;10.33;;
74170;SDS011;62526;50.948;6.590;2023-02-20T14:23:43;14.70;;;8.23;;
74170;SDS011;62526;50.948;6.590;2023-02-20T14:26:18;16.47;;;9.83;;
74170;SDS011;62526;50.948;6.590;2023-02-20T14:28:45;18.35;;;8.90;;
74170;SDS011;62526;50.948;6.590;2023-02-20T14:31:26;15.63;;;9.00;;
74170;SDS011;62526;50.948;6.590;2023-02-20T14:34:07;11.32;;;6.12;;
74170;SDS011;62526;50.948;6.590;2023-02-20T14:36:38;16.75;;;8.65;;
74170;SDS011;62526;50.948;6.590;2023-02-20T14:39:39;12.15;;;7.68;;
74170;SDS011;62526;50.948;6.590;2023-02-20T14:41:56;12.68;;;7.97;;
74170;SDS011;62526;50.948;6.590;2023-02-20T14:44:22;12.95;;;7.68;;
74170;SDS011;62526;50.948;6.590;2023-02-20T14:46:51;10.18;;;6.68;;
74170;SDS011;62526;50.948;6.590;2023-02-20T14:49:24;15.50;;;8.05;;
74170;SDS011;62526;50.948;6.590;2023-02-20T14:52:02;11.20;;;7.40;;
74170;SDS011;62526;50.948;6.590;2023-02-20T14:54:35;11.48;;;5.65;;
74170;SDS011;62526;50.948;6.590;2023-02-20T14:57:02;11.88;;;7.43;;
74170;SDS011;62526;50.948;6.590;2023-02-20T14:59:33;13.68;;;7.43;;
74170;SDS011;62526;50.948;6.590;2023-02-20T15:02:00;11.25;;;7.15;;
74170;SDS011;62526;50.948;6.590;2023-02-20T15:04:27;14.70;;;7.57;;
74170;SDS011;62526;50.948;6.590;2023-02-20T15:06:54;12.48;;;7.35;;
74170;SDS011;62526;50.948;6.590;2023-02-20T15:09:20;14.70;;;7.00;;
74170;SDS011;62526;50.948;6.590;2023-02-20T15:11:50;13.10;;;6.22;;
74170;SDS011;62526;50.948;6.590;2023-02-20T15:14:25;10.75;;;6.85;;
74170;SDS011;62526;50.948;6.590;2023-02-20T15:19:33;9.55;;;6.43;;
74170;SDS011;62526;50.948;6.590;2023-02-20T15:21:58;7.72;;;4.65;;
74170;SDS011;62526;50.948;6.590;2023-02-20T15:24:29;10.43;;;6.18;;
74170;SDS011;62526;50.948;6.590;2023-02-20T15:27:06;6.80;;;4.47;;
74170;SDS011;62526;50.948;6.590;2023-02-20T15:29:32;8.30;;;4.50;;
74170;SDS011;62526;50.948;6.590;2023-02-20T15:32:00;9.35;;;6.45;;
74170;SDS011;62526;50.948;6.590;2023-02-20T15:34:27;7.32;;;4.62;;
74170;SDS011;62526;50.948;6.590;2023-02-20T15:36:55;9.65;;;4.80;;
74170;SDS011;62526;50.948;6.590;2023-02-20T15:39:21;10.98;;;7.00;;